sensor_id;sensor_type;location;lat;lon;timestamp;P1;durP1;ratioP1;P2;durP2;ratioP2
6197;SDS011;3132;42.622;23.328;2022-12-18T00:01:34;12.57;;;11.67;;
6197;SDS011;3132;42.622;23.328;2022-12-18T00:04:01;12.70;;;11.77;;
6197;SDS011;3132;42.622;23.328;2022-12-18T00:06:32;13.00;;;12.27;;
6197;SDS011;3132;42.622;23.328;2022-12-18T00:08:59;12.63;;;11.83;;
6197;SDS011;3132;42.622;23.328;2022-12-18T00:11:26;12.03;;;11.33;;
6197;SDS011;3132;42.622;23.328;2022-12-18T00:13:55;13.53;;;12.63;;
6197;SDS011;3132;42.622;23.328;2022-12-18T00:16:22;13.00;;;12.10;;
6197;SDS011;3132;42.622;23.328;2022-12-18T00:18:50;13.70;;;12.80;;
6197;SDS011;3132;42.622;23.328;2022-12-18T00:21:17;14.90;;;13.73;;
6197;SDS011;3132;42.622;23.328;2022-12-18T00:23:44;11.97;;;11.17;;
6197;SDS011;3132;42.622;23.328;2022-12-18T00:26:11;13.90;;;12.97;;
6197;SDS011;3132;42.622;23.328;2022-12-18T00:28:40;13.53;;;12.47;;
6197;SDS011;3132;42.622;23.328;2022-12-18T00:31:06;14.23;;;13.27;;
6197;SDS011;3132;42.622;23.328;2022-12-18T00:33:33;14.83;;;13.67;;
6197;SDS011;3132;42.622;23.328;2022-12-18T00:36:03;13.80;;;12.70;;
6197;SDS011;3132;42.622;23.328;2022-12-18T00:38:29;13.53;;;12.63;;
6197;SDS011;3132;42.622;23.328;2022-12-18T00:40:54;13.20;;;12.30;;
6197;SDS011;3132;42.622;23.328;2022-12-18T00:43:20;13.30;;;12.40;;
6197;SDS011;3132;42.622;23.328;2022-12-18T00:45:45;13.07;;;12.17;;
6197;SDS011;3132;42.622;23.328;2022-12-18T00:48:10;14.23;;;13.17;;
6197;SDS011;3132;42.622;23.328;2022-12-18T00:50:35;12.70;;;11.77;;
6197;SDS011;3132;42.622;23.328;2022-12-18T00:53:01;13.97;;;12.87;;
6197;SDS011;3132;42.622;23.328;2022-12-18T00:55:26;12.97;;;12.03;;
6197;SDS011;3132;42.622;23.328;2022-12-18T00:57:52;12.83;;;11.93;;
6197;SDS011;3132;42.622;23.328;2022-12-18T01:00:17;13.37;;;12.37;;
6197;SDS011;3132;42.622;23.328;2022-12-18T01:02:43;13.10;;;12.00;;
6197;SDS011;3132;42.622;23.328;2022-12-18T01:05:09;13.47;;;12.57;;
6197;SDS011;3132;42.622;23.328;2022-12-18T01:07:35;13.33;;;12.33;;
6197;SDS011;3132;42.622;23.328;2022-12-18T01:10:01;13.83;;;12.83;;
6197;SDS011;3132;42.622;23.328;2022-12-18T01:12:26;13.87;;;12.87;;
6197;SDS011;3132;42.622;23.328;2022-12-18T01:14:52;14.20;;;13.10;;
6197;SDS011;3132;42.622;23.328;2022-12-18T01:17:17;13.40;;;12.50;;
6197;SDS011;3132;42.622;23.328;2022-12-18T01:19:42;13.10;;;12.20;;
6197;SDS011;3132;42.622;23.328;2022-12-18T01:22:08;15.00;;;13.63;;
6197;SDS011;3132;42.622;23.328;2022-12-18T01:24:33;13.77;;;12.77;;
6197;SDS011;3132;42.622;23.328;2022-12-18T01:26:59;13.73;;;12.67;;
6197;SDS011;3132;42.622;23.328;2022-12-18T01:29:24;14.37;;;13.23;;
6197;SDS011;3132;42.622;23.328;2022-12-18T01:31:49;14.20;;;13.00;;
6197;SDS011;3132;42.622;23.328;2022-12-18T01:34:15;13.97;;;12.87;;
6197;SDS011;3132;42.622;23.328;2022-12-18T01:36:40;13.50;;;12.40;;
6197;SDS011;3132;42.622;23.328;2022-12-18T01:39:07;14.27;;;13.20;;
6197;SDS011;3132;42.622;23.328;2022-12-18T01:41:35;15.13;;;13.83;;
6197;SDS011;3132;42.622;23.328;2022-12-18T01:49:51;15.20;;;14.00;;
6197;SDS011;3132;42.622;23.328;2022-12-18T01:52:17;14.77;;;13.67;;
6197;SDS011;3132;42.622;23.328;2022-12-18T01:54:45;15.40;;;14.10;;
6197;SDS011;3132;42.622;23.328;2022-12-18T01:57:12;15.20;;;14.00;;
6197;SDS011;3132;42.622;23.328;2022-12-18T01:59:38;15.87;;;14.37;;
6197;SDS011;3132;42.622;23.328;2022-12-18T02:02:05;16.37;;;14.83;;
6197;SDS011;3132;42.622;23.328;2022-12-18T02:04:32;16.47;;;14.97;;
6197;SDS011;3132;42.622;23.328;2022-12-18T02:09:50;15.77;;;14.23;;
6197;SDS011;3132;42.622;23.328;2022-12-18T02:12:23;14.70;;;13.30;;
6197;SDS011;3132;42.622;23.328;2022-12-18T02:15:09;15.57;;;14.27;;
6197;SDS011;3132;42.622;23.328;2022-12-18T02:17:46;15.17;;;13.93;;
6197;SDS011;3132;42.622;23.328;2022-12-18T02:25:53;15.77;;;14.40;;
6197;SDS011;3132;42.622;23.328;2022-12-18T02:28:56;16.27;;;14.70;;
6197;SDS011;3132;42.622;23.328;2022-12-18T02:31:28;15.00;;;13.80;;
6197;SDS011;3132;42.622;23.328;2022-12-18T02:34:00;16.80;;;15.20;;
6197;SDS011;3132;42.622;23.328;2022-12-18T02:36:28;16.07;;;14.67;;
6197;SDS011;3132;42.622;23.328;2022-12-18T02:38:54;15.10;;;13.77;;
6197;SDS011;3132;42.622;23.328;2022-12-18T02:41:22;15.63;;;14.33;;
6197;SDS011;3132;42.622;23.328;2022-12-18T02:43:49;15.53;;;14.10;;
6197;SDS011;3132;42.622;23.328;2022-12-18T02:49:49;16.07;;;14.73;;
6197;SDS011;3132;42.622;23.328;2022-12-18T02:59:55;17.00;;;15.53;;
6197;SDS011;3132;42.622;23.328;2022-12-18T03:02:56;15.70;;;14.33;;
6197;SDS011;3132;42.622;23.328;2022-12-18T03:05:31;15.17;;;13.97;;
6197;SDS011;3132;42.622;23.328;2022-12-18T03:10:38;16.17;;;14.90;;
6197;SDS011;3132;42.622;23.328;2022-12-18T03:13:12;14.87;;;13.47;;
6197;SDS011;3132;42.622;23.328;2022-12-18T03:15:45;14.57;;;13.47;;
6197;SDS011;3132;42.622;23.328;2022-12-18T03:18:17;14.93;;;13.73;;
6197;SDS011;3132;42.622;23.328;2022-12-18T03:20:47;13.97;;;13.00;;
6197;SDS011;3132;42.622;23.328;2022-12-18T03:23:19;14.20;;;13.07;;
6197;SDS011;3132;42.622;23.328;2022-12-18T03:25:47;14.63;;;13.53;;
6197;SDS011;3132;42.622;23.328;2022-12-18T03:28:18;13.23;;;12.20;;
6197;SDS011;3132;42.622;23.328;2022-12-18T03:30:46;15.10;;;13.83;;
6197;SDS011;3132;42.622;23.328;2022-12-18T03:33:25;14.43;;;13.43;;
6197;SDS011;3132;42.622;23.328;2022-12-18T03:35:57;15.63;;;14.40;;
6197;SDS011;3132;42.622;23.328;2022-12-18T03:38:22;15.23;;;13.97;;
6197;SDS011;3132;42.622;23.328;2022-12-18T03:46:17;13.60;;;12.70;;
6197;SDS011;3132;42.622;23.328;2022-12-18T03:48:46;12.70;;;11.90;;
6197;SDS011;3132;42.622;23.328;2022-12-18T03:51:18;12.47;;;11.57;;
6197;SDS011;3132;42.622;23.328;2022-12-18T03:53:56;12.00;;;11.27;;
6197;SDS011;3132;42.622;23.328;2022-12-18T03:56:25;12.83;;;11.87;;
6197;SDS011;3132;42.622;23.328;2022-12-18T03:58:54;13.70;;;12.57;;
6197;SDS011;3132;42.622;23.328;2022-12-18T04:01:22;11.50;;;10.67;;
6197;SDS011;3132;42.622;23.328;2022-12-18T04:03:53;14.17;;;13.13;;
6197;SDS011;3132;42.622;23.328;2022-12-18T04:06:20;12.57;;;11.67;;
6197;SDS011;3132;42.622;23.328;2022-12-18T04:08:46;12.40;;;11.53;;
6197;SDS011;3132;42.622;23.328;2022-12-18T04:11:12;12.07;;;11.27;;
6197;SDS011;3132;42.622;23.328;2022-12-18T04:13:38;13.33;;;12.43;;
6197;SDS011;3132;42.622;23.328;2022-12-18T04:16:03;13.60;;;12.50;;
6197;SDS011;3132;42.622;23.328;2022-12-18T04:18:29;13.27;;;12.27;;
6197;SDS011;3132;42.622;23.328;2022-12-18T04:20:55;12.83;;;12.03;;
6197;SDS011;3132;42.622;23.328;2022-12-18T04:23:20;12.67;;;11.77;;
6197;SDS011;3132;42.622;23.328;2022-12-18T04:25:49;11.43;;;10.70;;
6197;SDS011;3132;42.622;23.328;2022-12-18T04:28:14;13.20;;;12.40;;
6197;SDS011;3132;42.622;23.328;2022-12-18T04:30:40;11.83;;;11.03;;
6197;SDS011;3132;42.622;23.328;2022-12-18T04:33:09;13.80;;;12.70;;
6197;SDS011;3132;42.622;23.328;2022-12-18T04:35:35;12.77;;;11.67;;
6197;SDS011;3132;42.622;23.328;2022-12-18T04:38:00;12.40;;;11.60;;
6197;SDS011;3132;42.622;23.328;2022-12-18T04:40:26;12.73;;;11.83;;
6197;SDS011;3132;42.622;23.328;2022-12-18T04:42:51;12.40;;;11.60;;
6197;SDS011;3132;42.622;23.328;2022-12-18T04:45:16;11.60;;;10.83;;
6197;SDS011;3132;42.622;23.328;2022-12-18T04:47:42;13.40;;;12.50;;
6197;SDS011;3132;42.622;23.328;2022-12-18T04:50:07;12.50;;;11.60;;
6197;SDS011;3132;42.622;23.328;2022-12-18T04:52:33;12.93;;;12.03;;
6197;SDS011;3132;42.622;23.328;2022-12-18T04:54:58;12.97;;;11.87;;
6197;SDS011;3132;42.622;23.328;2022-12-18T04:57:23;13.60;;;12.43;;
6197;SDS011;3132;42.622;23.328;2022-12-18T04:59:49;12.57;;;11.57;;
6197;SDS011;3132;42.622;23.328;2022-12-18T05:02:14;12.47;;;11.57;;
6197;SDS011;3132;42.622;23.328;2022-12-18T05:04:40;12.90;;;11.70;;
6197;SDS011;3132;42.622;23.328;2022-12-18T05:07:05;13.63;;;12.47;;
6197;SDS011;3132;42.622;23.328;2022-12-18T05:09:30;13.40;;;12.47;;
6197;SDS011;3132;42.622;23.328;2022-12-18T05:11:56;13.83;;;12.63;;
6197;SDS011;3132;42.622;23.328;2022-12-18T05:14:21;13.33;;;12.13;;
6197;SDS011;3132;42.622;23.328;2022-12-18T05:16:46;12.80;;;11.77;;
6197;SDS011;3132;42.622;23.328;2022-12-18T05:19:12;13.13;;;12.13;;
6197;SDS011;3132;42.622;23.328;2022-12-18T05:21:37;13.23;;;12.27;;
6197;SDS011;3132;42.622;23.328;2022-12-18T05:24:03;14.07;;;12.90;;
6197;SDS011;3132;42.622;23.328;2022-12-18T05:26:28;12.83;;;11.93;;
6197;SDS011;3132;42.622;23.328;2022-12-18T05:28:54;13.40;;;12.37;;
6197;SDS011;3132;42.622;23.328;2022-12-18T05:31:19;14.03;;;12.90;;
6197;SDS011;3132;42.622;23.328;2022-12-18T05:33:44;13.17;;;12.23;;
6197;SDS011;3132;42.622;23.328;2022-12-18T05:36:10;14.50;;;13.40;;
6197;SDS011;3132;42.622;23.328;2022-12-18T05:38:37;12.63;;;11.73;;
6197;SDS011;3132;42.622;23.328;2022-12-18T05:41:03;14.20;;;12.90;;
6197;SDS011;3132;42.622;23.328;2022-12-18T05:43:30;13.07;;;12.13;;
6197;SDS011;3132;42.622;23.328;2022-12-18T05:45:56;13.33;;;12.33;;
6197;SDS011;3132;42.622;23.328;2022-12-18T05:48:22;19.97;;;18.67;;
6197;SDS011;3132;42.622;23.328;2022-12-18T05:50:48;14.30;;;13.10;;
6197;SDS011;3132;42.622;23.328;2022-12-18T05:53:15;14.23;;;13.23;;
6197;SDS011;3132;42.622;23.328;2022-12-18T05:55:43;14.30;;;13.20;;
6197;SDS011;3132;42.622;23.328;2022-12-18T05:58:09;13.07;;;12.07;;
6197;SDS011;3132;42.622;23.328;2022-12-18T06:00:36;14.93;;;13.83;;
6197;SDS011;3132;42.622;23.328;2022-12-18T06:03:07;15.93;;;14.33;;
6197;SDS011;3132;42.622;23.328;2022-12-18T06:05:44;17.00;;;15.50;;
6197;SDS011;3132;42.622;23.328;2022-12-18T06:08:10;16.30;;;14.90;;
6197;SDS011;3132;42.622;23.328;2022-12-18T06:10:36;16.23;;;14.63;;
6197;SDS011;3132;42.622;23.328;2022-12-18T06:13:02;16.90;;;15.33;;
6197;SDS011;3132;42.622;23.328;2022-12-18T06:15:28;16.10;;;14.53;;
6197;SDS011;3132;42.622;23.328;2022-12-18T06:17:53;16.37;;;15.00;;
6197;SDS011;3132;42.622;23.328;2022-12-18T06:20:19;15.23;;;13.67;;
6197;SDS011;3132;42.622;23.328;2022-12-18T06:22:46;15.43;;;13.97;;
6197;SDS011;3132;42.622;23.328;2022-12-18T06:25:11;16.07;;;14.70;;
6197;SDS011;3132;42.622;23.328;2022-12-18T06:27:37;16.83;;;15.07;;
6197;SDS011;3132;42.622;23.328;2022-12-18T06:30:02;15.27;;;13.87;;
6197;SDS011;3132;42.622;23.328;2022-12-18T06:32:28;15.70;;;14.07;;
6197;SDS011;3132;42.622;23.328;2022-12-18T06:34:54;15.30;;;14.13;;
6197;SDS011;3132;42.622;23.328;2022-12-18T06:37:20;15.03;;;13.53;;
6197;SDS011;3132;42.622;23.328;2022-12-18T06:39:46;16.43;;;15.07;;
6197;SDS011;3132;42.622;23.328;2022-12-18T06:42:11;14.17;;;12.97;;
6197;SDS011;3132;42.622;23.328;2022-12-18T06:44:36;14.63;;;13.40;;
6197;SDS011;3132;42.622;23.328;2022-12-18T06:47:02;15.43;;;14.07;;
6197;SDS011;3132;42.622;23.328;2022-12-18T06:49:27;15.47;;;14.27;;
6197;SDS011;3132;42.622;23.328;2022-12-18T06:51:53;17.27;;;15.57;;
6197;SDS011;3132;42.622;23.328;2022-12-18T06:54:18;15.53;;;14.23;;
6197;SDS011;3132;42.622;23.328;2022-12-18T06:56:46;15.67;;;14.43;;
6197;SDS011;3132;42.622;23.328;2022-12-18T06:59:12;14.63;;;13.40;;
6197;SDS011;3132;42.622;23.328;2022-12-18T07:01:38;14.33;;;13.10;;
6197;SDS011;3132;42.622;23.328;2022-12-18T07:04:03;13.90;;;12.67;;
6197;SDS011;3132;42.622;23.328;2022-12-18T07:06:29;14.67;;;13.40;;
6197;SDS011;3132;42.622;23.328;2022-12-18T07:08:54;14.47;;;13.33;;
6197;SDS011;3132;42.622;23.328;2022-12-18T07:11:20;16.00;;;14.60;;
6197;SDS011;3132;42.622;23.328;2022-12-18T07:13:45;15.57;;;14.23;;
6197;SDS011;3132;42.622;23.328;2022-12-18T07:16:12;15.27;;;14.03;;
6197;SDS011;3132;42.622;23.328;2022-12-18T07:18:43;15.93;;;14.60;;
6197;SDS011;3132;42.622;23.328;2022-12-18T07:21:09;14.07;;;12.87;;
6197;SDS011;3132;42.622;23.328;2022-12-18T07:23:37;15.40;;;13.83;;
6197;SDS011;3132;42.622;23.328;2022-12-18T07:26:04;16.70;;;15.17;;
6197;SDS011;3132;42.622;23.328;2022-12-18T07:28:31;15.73;;;14.43;;
6197;SDS011;3132;42.622;23.328;2022-12-18T07:30:58;15.60;;;14.20;;
6197;SDS011;3132;42.622;23.328;2022-12-18T07:33:24;14.57;;;13.27;;
6197;SDS011;3132;42.622;23.328;2022-12-18T07:35:49;15.63;;;14.33;;
6197;SDS011;3132;42.622;23.328;2022-12-18T07:38:15;14.83;;;13.70;;
6197;SDS011;3132;42.622;23.328;2022-12-18T07:40:40;14.37;;;13.17;;
6197;SDS011;3132;42.622;23.328;2022-12-18T07:43:05;15.37;;;14.00;;
6197;SDS011;3132;42.622;23.328;2022-12-18T07:45:31;15.27;;;13.97;;
6197;SDS011;3132;42.622;23.328;2022-12-18T07:47:56;15.83;;;14.43;;
6197;SDS011;3132;42.622;23.328;2022-12-18T07:50:21;15.40;;;13.90;;
6197;SDS011;3132;42.622;23.328;2022-12-18T07:52:47;14.97;;;13.57;;
6197;SDS011;3132;42.622;23.328;2022-12-18T07:55:12;15.27;;;13.77;;
6197;SDS011;3132;42.622;23.328;2022-12-18T07:57:38;16.93;;;14.80;;
6197;SDS011;3132;42.622;23.328;2022-12-18T08:00:03;16.00;;;14.57;;
6197;SDS011;3132;42.622;23.328;2022-12-18T08:02:30;16.27;;;14.93;;
6197;SDS011;3132;42.622;23.328;2022-12-18T08:04:56;15.87;;;14.47;;
6197;SDS011;3132;42.622;23.328;2022-12-18T08:07:22;16.13;;;14.57;;
6197;SDS011;3132;42.622;23.328;2022-12-18T08:09:47;15.87;;;14.23;;
6197;SDS011;3132;42.622;23.328;2022-12-18T08:12:12;16.40;;;14.90;;
6197;SDS011;3132;42.622;23.328;2022-12-18T08:14:38;17.27;;;15.40;;
6197;SDS011;3132;42.622;23.328;2022-12-18T08:17:03;17.03;;;15.30;;
6197;SDS011;3132;42.622;23.328;2022-12-18T08:19:28;17.97;;;16.37;;
6197;SDS011;3132;42.622;23.328;2022-12-18T08:21:54;18.27;;;15.80;;
6197;SDS011;3132;42.622;23.328;2022-12-18T08:24:19;18.07;;;16.27;;
6197;SDS011;3132;42.622;23.328;2022-12-18T08:26:44;19.47;;;17.60;;
6197;SDS011;3132;42.622;23.328;2022-12-18T08:29:10;19.70;;;17.50;;
6197;SDS011;3132;42.622;23.328;2022-12-18T08:31:35;17.87;;;16.17;;
6197;SDS011;3132;42.622;23.328;2022-12-18T08:34:01;19.73;;;17.67;;
6197;SDS011;3132;42.622;23.328;2022-12-18T08:36:26;18.07;;;16.20;;
6197;SDS011;3132;42.622;23.328;2022-12-18T08:38:52;18.83;;;16.97;;
6197;SDS011;3132;42.622;23.328;2022-12-18T08:41:17;19.53;;;17.40;;
6197;SDS011;3132;42.622;23.328;2022-12-18T08:43:43;19.43;;;17.43;;
6197;SDS011;3132;42.622;23.328;2022-12-18T08:46:31;21.20;;;17.93;;
6197;SDS011;3132;42.622;23.328;2022-12-18T08:48:59;20.03;;;17.70;;
6197;SDS011;3132;42.622;23.328;2022-12-18T08:51:25;19.87;;;17.80;;
6197;SDS011;3132;42.622;23.328;2022-12-18T08:53:50;18.07;;;16.20;;
6197;SDS011;3132;42.622;23.328;2022-12-18T08:56:16;20.00;;;17.83;;
6197;SDS011;3132;42.622;23.328;2022-12-18T08:58:41;18.93;;;17.10;;
6197;SDS011;3132;42.622;23.328;2022-12-18T09:01:08;19.47;;;17.43;;
6197;SDS011;3132;42.622;23.328;2022-12-18T09:03:35;19.23;;;17.33;;
6197;SDS011;3132;42.622;23.328;2022-12-18T09:06:00;24.07;;;18.57;;
6197;SDS011;3132;42.622;23.328;2022-12-18T09:08:26;20.73;;;16.63;;
6197;SDS011;3132;42.622;23.328;2022-12-18T09:10:52;24.10;;;18.70;;
6197;SDS011;3132;42.622;23.328;2022-12-18T09:13:17;26.40;;;20.57;;
6197;SDS011;3132;42.622;23.328;2022-12-18T09:15:44;23.60;;;19.47;;
6197;SDS011;3132;42.622;23.328;2022-12-18T09:18:13;29.37;;;21.17;;
6197;SDS011;3132;42.622;23.328;2022-12-18T09:20:39;23.93;;;19.17;;
6197;SDS011;3132;42.622;23.328;2022-12-18T09:23:05;25.00;;;20.07;;
6197;SDS011;3132;42.622;23.328;2022-12-18T09:25:31;30.23;;;21.53;;
6197;SDS011;3132;42.622;23.328;2022-12-18T09:28:05;28.87;;;20.40;;
6197;SDS011;3132;42.622;23.328;2022-12-18T09:30:37;24.20;;;20.00;;
6197;SDS011;3132;42.622;23.328;2022-12-18T09:33:03;26.80;;;19.33;;
6197;SDS011;3132;42.622;23.328;2022-12-18T09:35:28;29.97;;;21.30;;
6197;SDS011;3132;42.622;23.328;2022-12-18T09:37:54;26.73;;;20.70;;
6197;SDS011;3132;42.622;23.328;2022-12-18T09:40:21;26.00;;;20.40;;
6197;SDS011;3132;42.622;23.328;2022-12-18T09:42:54;28.37;;;21.40;;
6197;SDS011;3132;42.622;23.328;2022-12-18T09:45:23;24.30;;;19.37;;
6197;SDS011;3132;42.622;23.328;2022-12-18T09:47:49;23.33;;;19.20;;
6197;SDS011;3132;42.622;23.328;2022-12-18T09:52:53;29.23;;;22.57;;
6197;SDS011;3132;42.622;23.328;2022-12-18T09:55:33;30.13;;;20.83;;
6197;SDS011;3132;42.622;23.328;2022-12-18T10:01:00;29.37;;;20.60;;
6197;SDS011;3132;42.622;23.328;2022-12-18T10:03:25;25.37;;;20.03;;
6197;SDS011;3132;42.622;23.328;2022-12-18T10:11:22;18.17;;;16.17;;
6197;SDS011;3132;42.622;23.328;2022-12-18T10:19:29;22.77;;;18.50;;
6197;SDS011;3132;42.622;23.328;2022-12-18T10:28:12;21.47;;;18.40;;
6197;SDS011;3132;42.622;23.328;2022-12-18T10:30:40;22.80;;;18.83;;
6197;SDS011;3132;42.622;23.328;2022-12-18T10:33:10;25.07;;;18.97;;
6197;SDS011;3132;42.622;23.328;2022-12-18T10:35:39;26.27;;;19.37;;
6197;SDS011;3132;42.622;23.328;2022-12-18T10:43:38;25.47;;;19.20;;
6197;SDS011;3132;42.622;23.328;2022-12-18T10:48:54;25.67;;;20.47;;
6197;SDS011;3132;42.622;23.328;2022-12-18T10:51:21;24.10;;;19.47;;
6197;SDS011;3132;42.622;23.328;2022-12-18T10:56:42;24.53;;;18.30;;
6197;SDS011;3132;42.622;23.328;2022-12-18T10:59:08;21.70;;;18.67;;
6197;SDS011;3132;42.622;23.328;2022-12-18T11:01:56;24.40;;;19.00;;
6197;SDS011;3132;42.622;23.328;2022-12-18T11:04:27;21.20;;;18.23;;
6197;SDS011;3132;42.622;23.328;2022-12-18T11:09:36;22.90;;;18.03;;
6197;SDS011;3132;42.622;23.328;2022-12-18T11:12:14;21.83;;;18.07;;
6197;SDS011;3132;42.622;23.328;2022-12-18T11:17:23;23.10;;;18.67;;
6197;SDS011;3132;42.622;23.328;2022-12-18T11:20:02;20.87;;;17.07;;
6197;SDS011;3132;42.622;23.328;2022-12-18T11:22:32;18.90;;;16.43;;
6197;SDS011;3132;42.622;23.328;2022-12-18T11:25:05;18.13;;;16.33;;
6197;SDS011;3132;42.622;23.328;2022-12-18T11:27:49;18.90;;;16.13;;
6197;SDS011;3132;42.622;23.328;2022-12-18T11:30:21;17.27;;;15.67;;
6197;SDS011;3132;42.622;23.328;2022-12-18T11:32:48;18.17;;;16.27;;
6197;SDS011;3132;42.622;23.328;2022-12-18T11:35:23;18.80;;;16.80;;
6197;SDS011;3132;42.622;23.328;2022-12-18T11:37:59;20.30;;;17.27;;
6197;SDS011;3132;42.622;23.328;2022-12-18T11:40:33;17.37;;;15.30;;
6197;SDS011;3132;42.622;23.328;2022-12-18T11:43:18;16.40;;;14.87;;
6197;SDS011;3132;42.622;23.328;2022-12-18T11:46:04;21.43;;;18.87;;
6197;SDS011;3132;42.622;23.328;2022-12-18T11:48:41;23.00;;;16.27;;
6197;SDS011;3132;42.622;23.328;2022-12-18T11:51:18;18.37;;;15.23;;
6197;SDS011;3132;42.622;23.328;2022-12-18T11:53:53;18.13;;;16.27;;
6197;SDS011;3132;42.622;23.328;2022-12-18T11:58:56;19.47;;;16.83;;
6197;SDS011;3132;42.622;23.328;2022-12-18T12:09:26;17.80;;;16.07;;
6197;SDS011;3132;42.622;23.328;2022-12-18T12:15:19;20.27;;;16.07;;
6197;SDS011;3132;42.622;23.328;2022-12-18T12:26:22;18.53;;;16.60;;
6197;SDS011;3132;42.622;23.328;2022-12-18T12:29:50;30.53;;;23.03;;
6197;SDS011;3132;42.622;23.328;2022-12-18T12:32:28;22.37;;;17.23;;
6197;SDS011;3132;42.622;23.328;2022-12-18T12:38:04;18.30;;;16.37;;
6197;SDS011;3132;42.622;23.328;2022-12-18T12:40:35;20.43;;;17.60;;
6197;SDS011;3132;42.622;23.328;2022-12-18T12:46:08;18.20;;;15.63;;
6197;SDS011;3132;42.622;23.328;2022-12-18T12:48:37;19.93;;;16.10;;
6197;SDS011;3132;42.622;23.328;2022-12-18T12:51:10;22.20;;;18.53;;
6197;SDS011;3132;42.622;23.328;2022-12-18T12:53:38;21.03;;;16.90;;
6197;SDS011;3132;42.622;23.328;2022-12-18T12:56:06;21.63;;;17.43;;
6197;SDS011;3132;42.622;23.328;2022-12-18T13:06:11;32.77;;;22.50;;
6197;SDS011;3132;42.622;23.328;2022-12-18T13:08:56;21.37;;;17.57;;
6197;SDS011;3132;42.622;23.328;2022-12-18T13:14:26;19.67;;;17.40;;
6197;SDS011;3132;42.622;23.328;2022-12-18T13:17:14;21.70;;;18.40;;
6197;SDS011;3132;42.622;23.328;2022-12-18T13:19:55;20.80;;;16.93;;
6197;SDS011;3132;42.622;23.328;2022-12-18T13:22:33;21.57;;;18.33;;
6197;SDS011;3132;42.622;23.328;2022-12-18T13:25:00;19.17;;;16.53;;
6197;SDS011;3132;42.622;23.328;2022-12-18T13:30:27;20.03;;;17.43;;
6197;SDS011;3132;42.622;23.328;2022-12-18T13:41:00;19.87;;;17.57;;
6197;SDS011;3132;42.622;23.328;2022-12-18T13:43:47;26.03;;;18.63;;
6197;SDS011;3132;42.622;23.328;2022-12-18T13:46:45;22.97;;;18.83;;
6197;SDS011;3132;42.622;23.328;2022-12-18T13:51:39;22.40;;;19.23;;
6197;SDS011;3132;42.622;23.328;2022-12-18T13:54:16;22.17;;;18.43;;
6197;SDS011;3132;42.622;23.328;2022-12-18T13:56:44;23.90;;;18.77;;
6197;SDS011;3132;42.622;23.328;2022-12-18T13:59:15;24.03;;;18.20;;
6197;SDS011;3132;42.622;23.328;2022-12-18T14:01:43;21.17;;;18.17;;
6197;SDS011;3132;42.622;23.328;2022-12-18T14:06:49;24.50;;;19.60;;
6197;SDS011;3132;42.622;23.328;2022-12-18T14:09:24;24.77;;;19.43;;
6197;SDS011;3132;42.622;23.328;2022-12-18T14:11:51;24.27;;;20.27;;
6197;SDS011;3132;42.622;23.328;2022-12-18T14:14:40;28.03;;;20.27;;
6197;SDS011;3132;42.622;23.328;2022-12-18T14:17:10;24.83;;;19.53;;
6197;SDS011;3132;42.622;23.328;2022-12-18T14:19:36;24.50;;;18.57;;
6197;SDS011;3132;42.622;23.328;2022-12-18T14:22:09;28.80;;;20.57;;
6197;SDS011;3132;42.622;23.328;2022-12-18T14:24:40;23.47;;;19.27;;
6197;SDS011;3132;42.622;23.328;2022-12-18T14:27:22;26.20;;;18.50;;
6197;SDS011;3132;42.622;23.328;2022-12-18T14:29:49;23.43;;;19.60;;
6197;SDS011;3132;42.622;23.328;2022-12-18T14:32:19;28.37;;;23.07;;
6197;SDS011;3132;42.622;23.328;2022-12-18T14:34:49;29.13;;;21.17;;
6197;SDS011;3132;42.622;23.328;2022-12-18T14:37:17;25.10;;;19.37;;
6197;SDS011;3132;42.622;23.328;2022-12-18T14:40:19;27.03;;;19.87;;
6197;SDS011;3132;42.622;23.328;2022-12-18T14:42:38;26.97;;;20.30;;
6197;SDS011;3132;42.622;23.328;2022-12-18T14:48:00;22.63;;;18.80;;
6197;SDS011;3132;42.622;23.328;2022-12-18T14:50:32;24.27;;;19.00;;
6197;SDS011;3132;42.622;23.328;2022-12-18T14:52:57;23.63;;;19.67;;
6197;SDS011;3132;42.622;23.328;2022-12-18T14:55:23;22.70;;;18.43;;
6197;SDS011;3132;42.622;23.328;2022-12-18T14:57:52;19.47;;;17.40;;
6197;SDS011;3132;42.622;23.328;2022-12-18T15:00:20;18.30;;;16.23;;
6197;SDS011;3132;42.622;23.328;2022-12-18T15:02:48;21.90;;;17.30;;
6197;SDS011;3132;42.622;23.328;2022-12-18T15:05:23;20.80;;;16.97;;
6197;SDS011;3132;42.622;23.328;2022-12-18T15:07:53;19.70;;;17.43;;
6197;SDS011;3132;42.622;23.328;2022-12-18T15:10:28;24.47;;;19.07;;
6197;SDS011;3132;42.622;23.328;2022-12-18T15:33:38;23.00;;;19.37;;
6197;SDS011;3132;42.622;23.328;2022-12-18T15:36:09;24.27;;;18.47;;
6197;SDS011;3132;42.622;23.328;2022-12-18T15:38:36;21.30;;;17.30;;
6197;SDS011;3132;42.622;23.328;2022-12-18T15:41:02;26.20;;;18.00;;
6197;SDS011;3132;42.622;23.328;2022-12-18T15:43:28;20.93;;;17.90;;
6197;SDS011;3132;42.622;23.328;2022-12-18T15:46:03;20.70;;;17.70;;
6197;SDS011;3132;42.622;23.328;2022-12-18T15:48:30;21.33;;;17.37;;
6197;SDS011;3132;42.622;23.328;2022-12-18T15:50:58;20.50;;;17.40;;
6197;SDS011;3132;42.622;23.328;2022-12-18T15:53:24;22.60;;;18.20;;
6197;SDS011;3132;42.622;23.328;2022-12-18T15:55:52;22.97;;;18.53;;
6197;SDS011;3132;42.622;23.328;2022-12-18T15:58:37;24.00;;;17.73;;
6197;SDS011;3132;42.622;23.328;2022-12-18T16:01:02;20.80;;;18.60;;
6197;SDS011;3132;42.622;23.328;2022-12-18T16:03:27;26.70;;;21.17;;
6197;SDS011;3132;42.622;23.328;2022-12-18T16:05:53;31.23;;;19.87;;
6197;SDS011;3132;42.622;23.328;2022-12-18T16:08:18;21.73;;;18.87;;
6197;SDS011;3132;42.622;23.328;2022-12-18T16:10:44;24.00;;;20.57;;
6197;SDS011;3132;42.622;23.328;2022-12-18T16:13:10;27.97;;;21.43;;
6197;SDS011;3132;42.622;23.328;2022-12-18T16:15:37;29.93;;;20.70;;
6197;SDS011;3132;42.622;23.328;2022-12-18T16:18:02;33.63;;;21.57;;
6197;SDS011;3132;42.622;23.328;2022-12-18T16:20:27;36.20;;;22.57;;
6197;SDS011;3132;42.622;23.328;2022-12-18T16:22:53;23.30;;;18.73;;
6197;SDS011;3132;42.622;23.328;2022-12-18T16:25:19;22.17;;;16.97;;
6197;SDS011;3132;42.622;23.328;2022-12-18T16:27:50;23.70;;;18.00;;
6197;SDS011;3132;42.622;23.328;2022-12-18T16:30:21;22.33;;;20.00;;
6197;SDS011;3132;42.622;23.328;2022-12-18T16:32:49;22.83;;;18.17;;
6197;SDS011;3132;42.622;23.328;2022-12-18T16:35:15;19.97;;;18.00;;
6197;SDS011;3132;42.622;23.328;2022-12-18T16:37:41;16.87;;;15.17;;
6197;SDS011;3132;42.622;23.328;2022-12-18T16:40:08;19.57;;;16.43;;
6197;SDS011;3132;42.622;23.328;2022-12-18T16:42:36;17.50;;;15.70;;
6197;SDS011;3132;42.622;23.328;2022-12-18T16:45:02;17.33;;;15.33;;
6197;SDS011;3132;42.622;23.328;2022-12-18T16:47:28;18.20;;;16.13;;
6197;SDS011;3132;42.622;23.328;2022-12-18T16:49:54;19.33;;;17.40;;
6197;SDS011;3132;42.622;23.328;2022-12-18T16:52:19;18.90;;;15.90;;
6197;SDS011;3132;42.622;23.328;2022-12-18T16:54:46;18.90;;;16.23;;
6197;SDS011;3132;42.622;23.328;2022-12-18T16:57:13;19.10;;;17.10;;
6197;SDS011;3132;42.622;23.328;2022-12-18T16:59:40;19.37;;;16.97;;
6197;SDS011;3132;42.622;23.328;2022-12-18T17:02:10;19.87;;;17.10;;
6197;SDS011;3132;42.622;23.328;2022-12-18T17:04:39;18.70;;;15.90;;
6197;SDS011;3132;42.622;23.328;2022-12-18T17:07:04;20.30;;;16.37;;
6197;SDS011;3132;42.622;23.328;2022-12-18T17:09:30;18.43;;;16.50;;
6197;SDS011;3132;42.622;23.328;2022-12-18T17:11:55;17.33;;;15.63;;
6197;SDS011;3132;42.622;23.328;2022-12-18T17:14:21;18.13;;;16.23;;